Trenton Mercer Airport Trenton US
ICAO: KTTN
IATA: TTN
Category: Medium
Scheduled Services: Yes

Elevation: 213 ft
TransAlt. 18000 ft.

Airport Communications:
PHILADELPHIA APP/DEP:123.8
ASOS:133.7
ATIS:133.7
CTAF:120.7
GND/CLNC DEL:121.9
ARNG OPS:40.1
TWR:120.7
UNICOM:122.95

KTTN Zoom In..

If you have problems with the map follow the link
https://www.worldairports.se/pages/airport.php?
ICAO=KTTN

Runways:

(A) RW 06 length 6006 ft width 150 ft
ILS 111.30 / hdg 58

(B) RW 16 length 4800 ft width 150 ft
---- / hdg 158

(C) RW 24 length 6006 ft width 150 ft
---- / hdg 238

(D) RW 34 length 4800 ft width 150 ft
---- / hdg 338

Location; KTTN
Day. 14 / Time. 18.14 Zulu
* Altimeter: 29.23
* Temperature: 12° c. 53.6°f.
* Wind from: KTT° Speed N kn.
Dewpoint: 12° c.
Visibility: 1 Statute Miles.
Clouds: Overcast 200 ft.
Conditions: Light Rain.Conditions: Mist.

KTTN 141814Z 12005KT 1SM -RA BR OVC002 12/12 A2923 RMK AO2 P0001 T01170117


Wind From KTT°
Speed N kn.

 
 
jpsmedia worldairports.se 2019   terms of use